sensor_id;sensor_type;location;lat;lon;timestamp;P1;durP1;ratioP1;P2;durP2;ratioP2
61003;SDS011;46889;37.310;13.582;2022-08-19T00:01:41;37.72;;;5.15;;
61003;SDS011;46889;37.310;13.582;2022-08-19T00:04:10;30.00;;;4.70;;
61003;SDS011;46889;37.310;13.582;2022-08-19T00:06:38;32.15;;;5.13;;
61003;SDS011;46889;37.310;13.582;2022-08-19T00:09:06;31.00;;;5.00;;
61003;SDS011;46889;37.310;13.582;2022-08-19T00:11:34;32.75;;;5.30;;
61003;SDS011;46889;37.310;13.582;2022-08-19T00:14:02;34.17;;;5.88;;
61003;SDS011;46889;37.310;13.582;2022-08-19T00:16:29;36.47;;;5.15;;
61003;SDS011;46889;37.310;13.582;2022-08-19T00:18:55;34.15;;;5.57;;
61003;SDS011;46889;37.310;13.582;2022-08-19T00:21:24;29.58;;;5.00;;
61003;SDS011;46889;37.310;13.582;2022-08-19T00:23:52;37.50;;;5.32;;
61003;SDS011;46889;37.310;13.582;2022-08-19T00:26:19;35.30;;;4.78;;
61003;SDS011;46889;37.310;13.582;2022-08-19T00:28:46;31.90;;;5.15;;
61003;SDS011;46889;37.310;13.582;2022-08-19T00:31:12;34.65;;;5.03;;
61003;SDS011;46889;37.310;13.582;2022-08-19T00:33:38;24.23;;;4.97;;
61003;SDS011;46889;37.310;13.582;2022-08-19T00:36:05;32.58;;;4.97;;
61003;SDS011;46889;37.310;13.582;2022-08-19T00:38:33;32.30;;;5.85;;
61003;SDS011;46889;37.310;13.582;2022-08-19T00:41:00;30.27;;;5.13;;
61003;SDS011;46889;37.310;13.582;2022-08-19T00:43:26;30.83;;;5.28;;
61003;SDS011;46889;37.310;13.582;2022-08-19T00:45:53;20.73;;;4.00;;
61003;SDS011;46889;37.310;13.582;2022-08-19T00:50:45;18.05;;;3.92;;
61003;SDS011;46889;37.310;13.582;2022-08-19T00:53:14;20.70;;;4.15;;
61003;SDS011;46889;37.310;13.582;2022-08-19T00:55:47;25.05;;;3.88;;
61003;SDS011;46889;37.310;13.582;2022-08-19T00:58:16;21.88;;;3.97;;
61003;SDS011;46889;37.310;13.582;2022-08-19T01:00:45;26.23;;;4.80;;
61003;SDS011;46889;37.310;13.582;2022-08-19T01:03:13;22.95;;;4.53;;
61003;SDS011;46889;37.310;13.582;2022-08-19T01:05:42;24.88;;;4.05;;
61003;SDS011;46889;37.310;13.582;2022-08-19T01:08:10;22.45;;;4.05;;
61003;SDS011;46889;37.310;13.582;2022-08-19T01:10:39;29.55;;;4.72;;
61003;SDS011;46889;37.310;13.582;2022-08-19T01:13:07;23.45;;;4.55;;
61003;SDS011;46889;37.310;13.582;2022-08-19T01:15:35;23.85;;;4.10;;
61003;SDS011;46889;37.310;13.582;2022-08-19T01:18:12;22.15;;;4.18;;
61003;SDS011;46889;37.310;13.582;2022-08-19T01:20:41;29.95;;;4.50;;
61003;SDS011;46889;37.310;13.582;2022-08-19T01:23:09;25.15;;;4.20;;
61003;SDS011;46889;37.310;13.582;2022-08-19T01:25:44;27.90;;;4.28;;
61003;SDS011;46889;37.310;13.582;2022-08-19T01:28:25;27.15;;;4.38;;
61003;SDS011;46889;37.310;13.582;2022-08-19T01:30:53;32.42;;;4.57;;
61003;SDS011;46889;37.310;13.582;2022-08-19T01:33:19;27.35;;;4.25;;
61003;SDS011;46889;37.310;13.582;2022-08-19T01:35:46;22.25;;;4.10;;
61003;SDS011;46889;37.310;13.582;2022-08-19T01:38:24;23.98;;;4.50;;
61003;SDS011;46889;37.310;13.582;2022-08-19T01:40:51;21.27;;;4.63;;
61003;SDS011;46889;37.310;13.582;2022-08-19T01:43:18;24.33;;;4.45;;
61003;SDS011;46889;37.310;13.582;2022-08-19T01:48:11;22.55;;;4.13;;
61003;SDS011;46889;37.310;13.582;2022-08-19T01:50:39;26.77;;;4.55;;
61003;SDS011;46889;37.310;13.582;2022-08-19T01:53:06;22.85;;;4.95;;
61003;SDS011;46889;37.310;13.582;2022-08-19T01:55:36;24.67;;;4.25;;
61003;SDS011;46889;37.310;13.582;2022-08-19T01:58:03;22.17;;;4.45;;
61003;SDS011;46889;37.310;13.582;2022-08-19T02:00:31;23.23;;;4.65;;
61003;SDS011;46889;37.310;13.582;2022-08-19T02:02:58;26.50;;;4.60;;
61003;SDS011;46889;37.310;13.582;2022-08-19T02:05:26;20.30;;;3.88;;
61003;SDS011;46889;37.310;13.582;2022-08-19T02:07:54;28.98;;;4.70;;
61003;SDS011;46889;37.310;13.582;2022-08-19T02:10:22;31.25;;;4.80;;
61003;SDS011;46889;37.310;13.582;2022-08-19T02:15:17;29.27;;;4.80;;
61003;SDS011;46889;37.310;13.582;2022-08-19T02:17:45;24.58;;;5.10;;
61003;SDS011;46889;37.310;13.582;2022-08-19T02:20:11;27.73;;;4.30;;
61003;SDS011;46889;37.310;13.582;2022-08-19T02:22:38;28.02;;;4.32;;
61003;SDS011;46889;37.310;13.582;2022-08-19T02:25:08;23.13;;;4.45;;
61003;SDS011;46889;37.310;13.582;2022-08-19T02:27:38;30.63;;;4.55;;
61003;SDS011;46889;37.310;13.582;2022-08-19T02:30:06;25.27;;;4.88;;
61003;SDS011;46889;37.310;13.582;2022-08-19T02:32:34;19.90;;;4.93;;
61003;SDS011;46889;37.310;13.582;2022-08-19T02:35:00;28.67;;;4.05;;
61003;SDS011;46889;37.310;13.582;2022-08-19T02:40:11;30.90;;;4.38;;
61003;SDS011;46889;37.310;13.582;2022-08-19T02:45:03;23.23;;;4.53;;
61003;SDS011;46889;37.310;13.582;2022-08-19T02:47:30;25.63;;;4.70;;
61003;SDS011;46889;37.310;13.582;2022-08-19T02:49:57;27.65;;;4.82;;
61003;SDS011;46889;37.310;13.582;2022-08-19T02:52:23;17.45;;;4.40;;
61003;SDS011;46889;37.310;13.582;2022-08-19T02:54:50;22.05;;;3.90;;
61003;SDS011;46889;37.310;13.582;2022-08-19T02:57:16;23.75;;;4.47;;
61003;SDS011;46889;37.310;13.582;2022-08-19T02:59:42;26.80;;;4.50;;
61003;SDS011;46889;37.310;13.582;2022-08-19T03:02:08;25.58;;;4.38;;
61003;SDS011;46889;37.310;13.582;2022-08-19T03:04:34;29.33;;;5.05;;
61003;SDS011;46889;37.310;13.582;2022-08-19T03:07:00;25.27;;;4.30;;
61003;SDS011;46889;37.310;13.582;2022-08-19T03:09:26;21.73;;;4.50;;
61003;SDS011;46889;37.310;13.582;2022-08-19T03:11:52;20.67;;;4.32;;
61003;SDS011;46889;37.310;13.582;2022-08-19T03:14:18;34.33;;;4.72;;
61003;SDS011;46889;37.310;13.582;2022-08-19T03:16:45;27.30;;;4.30;;
61003;SDS011;46889;37.310;13.582;2022-08-19T03:19:13;32.13;;;5.20;;
61003;SDS011;46889;37.310;13.582;2022-08-19T03:21:42;24.42;;;5.00;;
61003;SDS011;46889;37.310;13.582;2022-08-19T03:24:09;27.13;;;4.93;;
61003;SDS011;46889;37.310;13.582;2022-08-19T03:26:40;24.73;;;4.70;;
61003;SDS011;46889;37.310;13.582;2022-08-19T03:29:09;32.20;;;5.45;;
61003;SDS011;46889;37.310;13.582;2022-08-19T03:31:36;26.73;;;5.32;;
61003;SDS011;46889;37.310;13.582;2022-08-19T03:34:04;30.45;;;4.50;;
61003;SDS011;46889;37.310;13.582;2022-08-19T03:36:30;25.08;;;4.68;;
61003;SDS011;46889;37.310;13.582;2022-08-19T03:41:25;25.45;;;4.68;;
61003;SDS011;46889;37.310;13.582;2022-08-19T03:43:56;27.10;;;4.43;;
61003;SDS011;46889;37.310;13.582;2022-08-19T03:48:51;24.65;;;4.50;;
61003;SDS011;46889;37.310;13.582;2022-08-19T03:51:28;23.30;;;4.47;;
61003;SDS011;46889;37.310;13.582;2022-08-19T03:53:58;27.15;;;5.05;;
61003;SDS011;46889;37.310;13.582;2022-08-19T03:56:26;22.50;;;5.03;;
61003;SDS011;46889;37.310;13.582;2022-08-19T03:58:55;28.50;;;5.28;;
61003;SDS011;46889;37.310;13.582;2022-08-19T04:01:23;31.45;;;5.22;;
61003;SDS011;46889;37.310;13.582;2022-08-19T04:03:57;26.33;;;4.30;;
61003;SDS011;46889;37.310;13.582;2022-08-19T04:06:29;21.92;;;4.93;;
61003;SDS011;46889;37.310;13.582;2022-08-19T04:08:57;22.95;;;4.82;;
61003;SDS011;46889;37.310;13.582;2022-08-19T04:11:28;29.33;;;5.57;;
61003;SDS011;46889;37.310;13.582;2022-08-19T04:13:59;29.45;;;4.88;;
61003;SDS011;46889;37.310;13.582;2022-08-19T04:18:55;29.92;;;5.60;;
61003;SDS011;46889;37.310;13.582;2022-08-19T04:21:23;29.88;;;5.07;;
61003;SDS011;46889;37.310;13.582;2022-08-19T04:23:51;27.00;;;4.93;;
61003;SDS011;46889;37.310;13.582;2022-08-19T04:26:19;29.17;;;4.63;;
61003;SDS011;46889;37.310;13.582;2022-08-19T04:28:47;29.77;;;4.72;;
61003;SDS011;46889;37.310;13.582;2022-08-19T04:31:15;30.67;;;5.35;;
61003;SDS011;46889;37.310;13.582;2022-08-19T04:33:43;24.90;;;4.72;;
61003;SDS011;46889;37.310;13.582;2022-08-19T04:36:16;35.45;;;5.55;;
61003;SDS011;46889;37.310;13.582;2022-08-19T04:38:44;32.72;;;5.35;;
61003;SDS011;46889;37.310;13.582;2022-08-19T04:41:10;26.80;;;5.93;;
61003;SDS011;46889;37.310;13.582;2022-08-19T04:43:55;27.02;;;4.88;;
61003;SDS011;46889;37.310;13.582;2022-08-19T04:46:21;22.45;;;4.97;;
61003;SDS011;46889;37.310;13.582;2022-08-19T04:48:47;26.15;;;4.63;;
61003;SDS011;46889;37.310;13.582;2022-08-19T04:51:13;36.28;;;5.05;;
61003;SDS011;46889;37.310;13.582;2022-08-19T04:53:40;28.30;;;5.70;;
61003;SDS011;46889;37.310;13.582;2022-08-19T04:56:11;29.98;;;5.80;;
61003;SDS011;46889;37.310;13.582;2022-08-19T04:58:39;29.70;;;6.82;;
61003;SDS011;46889;37.310;13.582;2022-08-19T05:01:08;25.20;;;6.45;;
61003;SDS011;46889;37.310;13.582;2022-08-19T05:03:37;28.58;;;6.18;;
61003;SDS011;46889;37.310;13.582;2022-08-19T05:06:04;38.22;;;6.25;;
61003;SDS011;46889;37.310;13.582;2022-08-19T05:08:33;27.58;;;5.32;;
61003;SDS011;46889;37.310;13.582;2022-08-19T05:11:01;23.38;;;5.00;;
61003;SDS011;46889;37.310;13.582;2022-08-19T05:13:36;24.15;;;4.88;;
61003;SDS011;46889;37.310;13.582;2022-08-19T05:16:03;27.42;;;5.75;;
61003;SDS011;46889;37.310;13.582;2022-08-19T05:18:29;30.17;;;5.43;;
61003;SDS011;46889;37.310;13.582;2022-08-19T05:21:15;31.75;;;4.95;;
61003;SDS011;46889;37.310;13.582;2022-08-19T05:24:01;31.35;;;4.63;;
61003;SDS011;46889;37.310;13.582;2022-08-19T05:26:27;31.90;;;6.13;;
61003;SDS011;46889;37.310;13.582;2022-08-19T05:28:54;28.95;;;5.15;;
61003;SDS011;46889;37.310;13.582;2022-08-19T05:31:20;31.27;;;5.40;;
61003;SDS011;46889;37.310;13.582;2022-08-19T05:33:47;26.83;;;5.03;;
61003;SDS011;46889;37.310;13.582;2022-08-19T05:36:15;33.45;;;5.70;;
61003;SDS011;46889;37.310;13.582;2022-08-19T05:38:41;29.38;;;6.10;;
61003;SDS011;46889;37.310;13.582;2022-08-19T05:41:10;24.35;;;6.00;;
61003;SDS011;46889;37.310;13.582;2022-08-19T05:43:38;30.23;;;5.43;;
61003;SDS011;46889;37.310;13.582;2022-08-19T05:48:34;24.13;;;5.43;;
61003;SDS011;46889;37.310;13.582;2022-08-19T05:51:05;36.40;;;4.93;;
61003;SDS011;46889;37.310;13.582;2022-08-19T05:53:32;26.73;;;5.75;;
61003;SDS011;46889;37.310;13.582;2022-08-19T05:56:03;28.40;;;4.90;;
61003;SDS011;46889;37.310;13.582;2022-08-19T05:58:35;26.88;;;5.20;;
61003;SDS011;46889;37.310;13.582;2022-08-19T06:01:02;33.90;;;5.22;;
61003;SDS011;46889;37.310;13.582;2022-08-19T06:03:34;26.85;;;4.50;;
61003;SDS011;46889;37.310;13.582;2022-08-19T06:06:03;24.77;;;4.68;;
61003;SDS011;46889;37.310;13.582;2022-08-19T06:08:30;20.38;;;4.13;;
61003;SDS011;46889;37.310;13.582;2022-08-19T06:10:57;21.75;;;4.60;;
61003;SDS011;46889;37.310;13.582;2022-08-19T06:13:36;31.05;;;5.13;;
61003;SDS011;46889;37.310;13.582;2022-08-19T06:16:02;25.42;;;4.85;;
61003;SDS011;46889;37.310;13.582;2022-08-19T06:20:54;27.40;;;4.72;;
61003;SDS011;46889;37.310;13.582;2022-08-19T06:23:20;28.83;;;4.35;;
61003;SDS011;46889;37.310;13.582;2022-08-19T06:28:12;31.45;;;4.80;;
61003;SDS011;46889;37.310;13.582;2022-08-19T06:30:38;26.63;;;4.95;;
61003;SDS011;46889;37.310;13.582;2022-08-19T06:35:30;26.23;;;4.95;;
61003;SDS011;46889;37.310;13.582;2022-08-19T06:40:22;31.58;;;5.43;;
61003;SDS011;46889;37.310;13.582;2022-08-19T06:42:49;24.00;;;5.10;;
61003;SDS011;46889;37.310;13.582;2022-08-19T06:45:15;23.60;;;4.30;;
61003;SDS011;46889;37.310;13.582;2022-08-19T06:47:41;30.55;;;4.95;;
61003;SDS011;46889;37.310;13.582;2022-08-19T06:50:11;28.00;;;5.28;;
61003;SDS011;46889;37.310;13.582;2022-08-19T06:52:37;33.53;;;5.85;;
61003;SDS011;46889;37.310;13.582;2022-08-19T06:55:04;32.42;;;5.38;;
61003;SDS011;46889;37.310;13.582;2022-08-19T06:57:31;24.25;;;5.28;;
61003;SDS011;46889;37.310;13.582;2022-08-19T06:59:58;23.45;;;4.90;;
61003;SDS011;46889;37.310;13.582;2022-08-19T07:02:25;35.45;;;6.18;;
61003;SDS011;46889;37.310;13.582;2022-08-19T07:04:51;34.50;;;6.20;;
61003;SDS011;46889;37.310;13.582;2022-08-19T07:07:19;31.58;;;5.65;;
61003;SDS011;46889;37.310;13.582;2022-08-19T07:09:46;29.48;;;4.70;;
61003;SDS011;46889;37.310;13.582;2022-08-19T07:12:12;25.63;;;4.80;;
61003;SDS011;46889;37.310;13.582;2022-08-19T07:14:40;25.88;;;4.88;;
61003;SDS011;46889;37.310;13.582;2022-08-19T07:17:08;37.83;;;6.05;;
61003;SDS011;46889;37.310;13.582;2022-08-19T07:19:36;25.20;;;4.40;;
61003;SDS011;46889;37.310;13.582;2022-08-19T07:22:05;25.80;;;4.30;;
61003;SDS011;46889;37.310;13.582;2022-08-19T07:24:32;34.70;;;5.78;;
61003;SDS011;46889;37.310;13.582;2022-08-19T07:26:59;30.85;;;4.57;;
61003;SDS011;46889;37.310;13.582;2022-08-19T07:29:29;31.67;;;5.60;;
61003;SDS011;46889;37.310;13.582;2022-08-19T07:31:58;30.88;;;5.10;;
61003;SDS011;46889;37.310;13.582;2022-08-19T07:34:26;24.30;;;4.82;;
61003;SDS011;46889;37.310;13.582;2022-08-19T07:36:54;23.73;;;4.40;;
61003;SDS011;46889;37.310;13.582;2022-08-19T07:39:22;28.73;;;4.85;;
61003;SDS011;46889;37.310;13.582;2022-08-19T07:41:51;30.55;;;4.80;;
61003;SDS011;46889;37.310;13.582;2022-08-19T07:44:18;30.67;;;5.15;;
61003;SDS011;46889;37.310;13.582;2022-08-19T07:46:47;27.98;;;4.88;;
61003;SDS011;46889;37.310;13.582;2022-08-19T07:49:16;32.33;;;5.93;;
61003;SDS011;46889;37.310;13.582;2022-08-19T07:51:48;28.83;;;5.15;;
61003;SDS011;46889;37.310;13.582;2022-08-19T07:54:18;30.00;;;5.38;;
61003;SDS011;46889;37.310;13.582;2022-08-19T07:56:45;30.00;;;5.57;;
61003;SDS011;46889;37.310;13.582;2022-08-19T07:59:11;33.72;;;5.30;;
61003;SDS011;46889;37.310;13.582;2022-08-19T08:01:38;29.48;;;5.18;;
61003;SDS011;46889;37.310;13.582;2022-08-19T08:04:05;28.92;;;5.45;;
61003;SDS011;46889;37.310;13.582;2022-08-19T08:06:50;29.02;;;4.90;;
61003;SDS011;46889;37.310;13.582;2022-08-19T08:09:37;23.20;;;4.53;;
61003;SDS011;46889;37.310;13.582;2022-08-19T08:12:12;22.23;;;4.65;;
61003;SDS011;46889;37.310;13.582;2022-08-19T08:14:42;29.42;;;4.60;;
61003;SDS011;46889;37.310;13.582;2022-08-19T08:17:14;25.20;;;5.03;;
61003;SDS011;46889;37.310;13.582;2022-08-19T08:19:42;21.05;;;3.97;;
61003;SDS011;46889;37.310;13.582;2022-08-19T08:22:09;20.92;;;4.38;;
61003;SDS011;46889;37.310;13.582;2022-08-19T08:24:56;22.73;;;4.93;;
61003;SDS011;46889;37.310;13.582;2022-08-19T08:27:25;18.67;;;4.47;;
61003;SDS011;46889;37.310;13.582;2022-08-19T08:29:56;21.02;;;4.60;;
61003;SDS011;46889;37.310;13.582;2022-08-19T08:32:23;17.38;;;4.00;;
61003;SDS011;46889;37.310;13.582;2022-08-19T08:37:14;15.32;;;3.83;;
61003;SDS011;46889;37.310;13.582;2022-08-19T08:39:40;19.55;;;4.38;;
61003;SDS011;46889;37.310;13.582;2022-08-19T08:42:29;16.48;;;4.05;;
61003;SDS011;46889;37.310;13.582;2022-08-19T08:45:12;18.38;;;4.57;;
61003;SDS011;46889;37.310;13.582;2022-08-19T08:47:41;18.13;;;4.28;;
61003;SDS011;46889;37.310;13.582;2022-08-19T08:50:18;21.83;;;4.38;;
61003;SDS011;46889;37.310;13.582;2022-08-19T08:52:50;14.43;;;4.00;;
61003;SDS011;46889;37.310;13.582;2022-08-19T08:55:24;18.15;;;4.22;;
61003;SDS011;46889;37.310;13.582;2022-08-19T08:57:59;20.17;;;4.45;;
61003;SDS011;46889;37.310;13.582;2022-08-19T09:00:31;19.85;;;4.15;;
61003;SDS011;46889;37.310;13.582;2022-08-19T09:03:01;19.08;;;4.38;;
61003;SDS011;46889;37.310;13.582;2022-08-19T09:05:53;18.98;;;4.13;;
61003;SDS011;46889;37.310;13.582;2022-08-19T09:08:40;20.02;;;4.57;;
61003;SDS011;46889;37.310;13.582;2022-08-19T09:11:37;16.08;;;4.28;;
61003;SDS011;46889;37.310;13.582;2022-08-19T09:17:23;20.92;;;4.65;;
61003;SDS011;46889;37.310;13.582;2022-08-19T09:22:33;23.90;;;4.10;;
61003;SDS011;46889;37.310;13.582;2022-08-19T09:25:03;18.35;;;4.40;;
61003;SDS011;46889;37.310;13.582;2022-08-19T09:27:31;14.35;;;3.67;;
61003;SDS011;46889;37.310;13.582;2022-08-19T09:29:57;23.88;;;4.20;;
61003;SDS011;46889;37.310;13.582;2022-08-19T09:32:23;17.00;;;4.20;;
61003;SDS011;46889;37.310;13.582;2022-08-19T09:34:52;21.95;;;4.25;;
61003;SDS011;46889;37.310;13.582;2022-08-19T09:37:20;18.50;;;3.92;;
61003;SDS011;46889;37.310;13.582;2022-08-19T09:39:47;19.67;;;3.90;;
61003;SDS011;46889;37.310;13.582;2022-08-19T09:42:13;17.02;;;3.70;;
61003;SDS011;46889;37.310;13.582;2022-08-19T09:44:40;24.75;;;4.50;;
61003;SDS011;46889;37.310;13.582;2022-08-19T09:47:07;21.48;;;4.15;;
61003;SDS011;46889;37.310;13.582;2022-08-19T09:49:36;22.60;;;4.45;;
61003;SDS011;46889;37.310;13.582;2022-08-19T09:52:03;18.88;;;4.90;;
61003;SDS011;46889;37.310;13.582;2022-08-19T09:54:30;21.20;;;4.10;;
61003;SDS011;46889;37.310;13.582;2022-08-19T09:56:57;19.92;;;4.20;;
61003;SDS011;46889;37.310;13.582;2022-08-19T09:59:27;22.77;;;4.35;;
61003;SDS011;46889;37.310;13.582;2022-08-19T10:01:54;27.85;;;5.18;;
61003;SDS011;46889;37.310;13.582;2022-08-19T10:04:20;18.98;;;3.60;;
61003;SDS011;46889;37.310;13.582;2022-08-19T10:06:47;14.68;;;3.47;;
61003;SDS011;46889;37.310;13.582;2022-08-19T10:09:15;16.30;;;3.40;;
61003;SDS011;46889;37.310;13.582;2022-08-19T10:11:43;13.25;;;3.25;;
61003;SDS011;46889;37.310;13.582;2022-08-19T10:14:15;18.83;;;2.90;;
61003;SDS011;46889;37.310;13.582;2022-08-19T10:16:42;13.57;;;2.65;;
61003;SDS011;46889;37.310;13.582;2022-08-19T10:19:08;16.92;;;3.22;;
61003;SDS011;46889;37.310;13.582;2022-08-19T10:21:35;16.02;;;3.20;;
61003;SDS011;46889;37.310;13.582;2022-08-19T10:24:02;18.77;;;3.58;;
61003;SDS011;46889;37.310;13.582;2022-08-19T10:26:34;16.65;;;3.78;;
61003;SDS011;46889;37.310;13.582;2022-08-19T10:29:03;17.27;;;2.83;;
61003;SDS011;46889;37.310;13.582;2022-08-19T10:31:31;12.32;;;2.40;;
61003;SDS011;46889;37.310;13.582;2022-08-19T10:33:58;16.05;;;2.90;;
61003;SDS011;46889;37.310;13.582;2022-08-19T10:36:27;15.07;;;2.85;;
61003;SDS011;46889;37.310;13.582;2022-08-19T10:39:00;12.63;;;2.67;;
61003;SDS011;46889;37.310;13.582;2022-08-19T10:41:30;16.15;;;3.30;;
61003;SDS011;46889;37.310;13.582;2022-08-19T10:44:02;16.30;;;3.03;;
61003;SDS011;46889;37.310;13.582;2022-08-19T10:46:33;24.67;;;3.08;;
61003;SDS011;46889;37.310;13.582;2022-08-19T10:49:02;15.07;;;2.70;;
61003;SDS011;46889;37.310;13.582;2022-08-19T10:51:31;15.45;;;3.45;;
61003;SDS011;46889;37.310;13.582;2022-08-19T10:54:16;13.70;;;2.40;;
61003;SDS011;46889;37.310;13.582;2022-08-19T10:56:42;19.25;;;3.03;;
61003;SDS011;46889;37.310;13.582;2022-08-19T10:59:19;17.80;;;4.38;;
61003;SDS011;46889;37.310;13.582;2022-08-19T11:01:47;22.90;;;5.03;;
61003;SDS011;46889;37.310;13.582;2022-08-19T11:04:14;22.63;;;4.80;;
61003;SDS011;46889;37.310;13.582;2022-08-19T11:06:45;18.30;;;4.65;;
61003;SDS011;46889;37.310;13.582;2022-08-19T11:09:14;24.98;;;5.25;;
61003;SDS011;46889;37.310;13.582;2022-08-19T11:11:41;24.15;;;5.47;;
61003;SDS011;46889;37.310;13.582;2022-08-19T11:14:08;19.90;;;5.28;;
61003;SDS011;46889;37.310;13.582;2022-08-19T11:16:36;13.80;;;3.83;;
61003;SDS011;46889;37.310;13.582;2022-08-19T11:19:04;19.27;;;3.58;;
61003;SDS011;46889;37.310;13.582;2022-08-19T11:21:34;17.92;;;3.45;;
61003;SDS011;46889;37.310;13.582;2022-08-19T11:24:09;12.07;;;2.70;;
61003;SDS011;46889;37.310;13.582;2022-08-19T11:26:41;12.50;;;2.70;;
61003;SDS011;46889;37.310;13.582;2022-08-19T11:29:09;13.90;;;2.58;;
61003;SDS011;46889;37.310;13.582;2022-08-19T11:31:38;16.25;;;2.58;;
61003;SDS011;46889;37.310;13.582;2022-08-19T11:34:08;15.75;;;2.58;;
61003;SDS011;46889;37.310;13.582;2022-08-19T11:36:36;49.33;;;3.78;;
61003;SDS011;46889;37.310;13.582;2022-08-19T11:39:05;9.82;;;2.05;;
61003;SDS011;46889;37.310;13.582;2022-08-19T11:41:32;23.45;;;2.50;;
61003;SDS011;46889;37.310;13.582;2022-08-19T11:43:58;6.88;;;1.85;;
61003;SDS011;46889;37.310;13.582;2022-08-19T11:46:25;11.13;;;1.95;;
61003;SDS011;46889;37.310;13.582;2022-08-19T11:48:54;11.85;;;2.35;;
61003;SDS011;46889;37.310;13.582;2022-08-19T11:51:22;17.85;;;2.53;;
61003;SDS011;46889;37.310;13.582;2022-08-19T11:53:55;9.18;;;2.10;;
61003;SDS011;46889;37.310;13.582;2022-08-19T11:56:22;13.57;;;2.35;;
61003;SDS011;46889;37.310;13.582;2022-08-19T11:58:49;10.25;;;2.20;;
61003;SDS011;46889;37.310;13.582;2022-08-19T12:01:16;15.25;;;1.95;;
61003;SDS011;46889;37.310;13.582;2022-08-19T12:03:44;11.10;;;2.10;;
61003;SDS011;46889;37.310;13.582;2022-08-19T12:06:13;16.65;;;2.00;;
61003;SDS011;46889;37.310;13.582;2022-08-19T12:08:44;18.63;;;2.20;;
61003;SDS011;46889;37.310;13.582;2022-08-19T12:11:11;10.77;;;1.90;;
61003;SDS011;46889;37.310;13.582;2022-08-19T12:13:39;23.15;;;2.40;;
61003;SDS011;46889;37.310;13.582;2022-08-19T12:16:09;16.75;;;2.28;;
61003;SDS011;46889;37.310;13.582;2022-08-19T12:18:38;16.38;;;2.42;;
61003;SDS011;46889;37.310;13.582;2022-08-19T12:21:16;9.25;;;1.77;;
61003;SDS011;46889;37.310;13.582;2022-08-19T12:23:50;22.35;;;2.30;;
61003;SDS011;46889;37.310;13.582;2022-08-19T12:26:18;14.00;;;2.00;;
61003;SDS011;46889;37.310;13.582;2022-08-19T12:28:44;12.50;;;2.22;;
61003;SDS011;46889;37.310;13.582;2022-08-19T12:31:10;9.05;;;1.88;;
61003;SDS011;46889;37.310;13.582;2022-08-19T12:33:37;19.15;;;2.65;;
61003;SDS011;46889;37.310;13.582;2022-08-19T12:36:05;11.27;;;1.75;;
61003;SDS011;46889;37.310;13.582;2022-08-19T12:38:33;20.08;;;3.10;;
61003;SDS011;46889;37.310;13.582;2022-08-19T12:41:03;11.13;;;2.15;;
61003;SDS011;46889;37.310;13.582;2022-08-19T12:43:31;11.90;;;2.17;;
61003;SDS011;46889;37.310;13.582;2022-08-19T12:45:59;11.57;;;2.05;;
61003;SDS011;46889;37.310;13.582;2022-08-19T12:48:26;9.18;;;1.73;;
61003;SDS011;46889;37.310;13.582;2022-08-19T12:50:52;9.68;;;1.92;;
61003;SDS011;46889;37.310;13.582;2022-08-19T12:53:19;11.68;;;2.10;;
61003;SDS011;46889;37.310;13.582;2022-08-19T12:55:45;15.77;;;1.73;;
61003;SDS011;46889;37.310;13.582;2022-08-19T12:58:11;7.90;;;2.17;;
61003;SDS011;46889;37.310;13.582;2022-08-19T13:00:38;8.57;;;2.30;;
61003;SDS011;46889;37.310;13.582;2022-08-19T13:03:04;12.07;;;1.92;;
61003;SDS011;46889;37.310;13.582;2022-08-19T13:05:32;9.57;;;1.90;;
61003;SDS011;46889;37.310;13.582;2022-08-19T13:07:59;8.70;;;1.90;;
61003;SDS011;46889;37.310;13.582;2022-08-19T13:10:27;13.00;;;1.95;;
61003;SDS011;46889;37.310;13.582;2022-08-19T13:12:55;14.90;;;1.92;;
61003;SDS011;46889;37.310;13.582;2022-08-19T13:15:24;12.65;;;1.92;;
61003;SDS011;46889;37.310;13.582;2022-08-19T13:17:53;16.65;;;2.00;;
61003;SDS011;46889;37.310;13.582;2022-08-19T13:20:21;12.57;;;2.72;;
61003;SDS011;46889;37.310;13.582;2022-08-19T13:22:48;10.30;;;1.85;;
61003;SDS011;46889;37.310;13.582;2022-08-19T13:25:15;18.08;;;1.75;;
61003;SDS011;46889;37.310;13.582;2022-08-19T13:27:43;40.78;;;3.38;;
61003;SDS011;46889;37.310;13.582;2022-08-19T13:30:10;11.70;;;1.80;;
61003;SDS011;46889;37.310;13.582;2022-08-19T13:32:56;6.45;;;1.58;;
61003;SDS011;46889;37.310;13.582;2022-08-19T13:35:40;5.97;;;1.40;;
61003;SDS011;46889;37.310;13.582;2022-08-19T13:38:08;9.13;;;1.52;;
61003;SDS011;46889;37.310;13.582;2022-08-19T13:40:35;9.65;;;1.83;;
61003;SDS011;46889;37.310;13.582;2022-08-19T13:43:02;10.73;;;1.60;;
61003;SDS011;46889;37.310;13.582;2022-08-19T13:45:30;13.95;;;1.88;;
61003;SDS011;46889;37.310;13.582;2022-08-19T13:48:01;12.23;;;1.83;;
61003;SDS011;46889;37.310;13.582;2022-08-19T13:50:33;16.95;;;1.98;;
61003;SDS011;46889;37.310;13.582;2022-08-19T13:53:11;13.75;;;1.80;;
61003;SDS011;46889;37.310;13.582;2022-08-19T13:55:38;14.88;;;1.90;;
61003;SDS011;46889;37.310;13.582;2022-08-19T13:58:05;10.82;;;1.75;;
61003;SDS011;46889;37.310;13.582;2022-08-19T14:00:37;10.98;;;2.00;;
61003;SDS011;46889;37.310;13.582;2022-08-19T14:03:06;8.68;;;1.80;;
61003;SDS011;46889;37.310;13.582;2022-08-19T14:05:33;6.68;;;2.15;;
61003;SDS011;46889;37.310;13.582;2022-08-19T14:07:59;7.75;;;1.50;;
61003;SDS011;46889;37.310;13.582;2022-08-19T14:10:26;10.23;;;1.73;;
61003;SDS011;46889;37.310;13.582;2022-08-19T14:12:56;8.75;;;1.75;;
61003;SDS011;46889;37.310;13.582;2022-08-19T14:15:24;17.70;;;2.25;;
61003;SDS011;46889;37.310;13.582;2022-08-19T14:17:50;11.52;;;2.22;;
61003;SDS011;46889;37.310;13.582;2022-08-19T14:20:17;9.50;;;1.70;;
61003;SDS011;46889;37.310;13.582;2022-08-19T14:22:43;9.63;;;1.60;;
61003;SDS011;46889;37.310;13.582;2022-08-19T14:25:12;8.95;;;1.80;;
61003;SDS011;46889;37.310;13.582;2022-08-19T14:27:41;12.55;;;2.10;;
61003;SDS011;46889;37.310;13.582;2022-08-19T14:30:08;7.95;;;2.10;;
61003;SDS011;46889;37.310;13.582;2022-08-19T14:32:36;9.93;;;2.10;;
61003;SDS011;46889;37.310;13.582;2022-08-19T14:35:03;10.35;;;2.00;;
61003;SDS011;46889;37.310;13.582;2022-08-19T14:37:33;11.02;;;1.90;;
61003;SDS011;46889;37.310;13.582;2022-08-19T14:39:59;9.48;;;1.90;;
61003;SDS011;46889;37.310;13.582;2022-08-19T14:42:26;10.20;;;2.05;;
61003;SDS011;46889;37.310;13.582;2022-08-19T14:44:52;12.63;;;1.75;;
61003;SDS011;46889;37.310;13.582;2022-08-19T14:47:18;7.82;;;1.65;;
61003;SDS011;46889;37.310;13.582;2022-08-19T14:49:44;7.75;;;1.70;;
61003;SDS011;46889;37.310;13.582;2022-08-19T14:52:11;11.32;;;1.92;;
61003;SDS011;46889;37.310;13.582;2022-08-19T14:54:37;6.03;;;1.55;;
61003;SDS011;46889;37.310;13.582;2022-08-19T14:57:03;10.15;;;2.03;;
61003;SDS011;46889;37.310;13.582;2022-08-19T14:59:29;8.13;;;1.90;;
61003;SDS011;46889;37.310;13.582;2022-08-19T15:01:55;11.98;;;2.30;;
61003;SDS011;46889;37.310;13.582;2022-08-19T15:04:21;8.95;;;2.00;;
61003;SDS011;46889;37.310;13.582;2022-08-19T15:06:47;12.30;;;2.15;;
61003;SDS011;46889;37.310;13.582;2022-08-19T15:09:15;7.78;;;1.77;;
61003;SDS011;46889;37.310;13.582;2022-08-19T15:11:42;9.48;;;1.88;;
61003;SDS011;46889;37.310;13.582;2022-08-19T15:14:13;11.02;;;1.85;;